Time;durP1;ratioP1;P1;durP2;ratioP2;P2;SDS_P1;SDS_P2;PMS_P1;PMS_P2;Temp;Humidity;BMP_temperature;BMP_pressure;BME280_temperature;BME280_humidity;BME280_pressure;Samples;Min_cycle;Max_cycle;Signal;HPM_P1;HPM_P2
2021/11/13 00:02:11;;;;;;;93.82;30.00;;;5.30;73.10;;;;;;4630028;28;20053;-65
2021/11/13 00:04:30;;;;;;;80.05;29.30;;;5.30;73.30;;;;;;4645528;28;20068;-65
2021/11/13 00:06:46;;;;;;;74.53;32.25;;;5.40;73.40;;;;;;4645448;28;20050;-65
2021/11/13 00:09:04;;;;;;;81.57;29.80;;;5.40;73.50;;;;;;4645439;28;20150;-65
2021/11/13 00:11:20;;;;;;;117.22;32.90;;;5.40;73.60;;;;;;4645499;28;20075;-65
2021/11/13 00:13:38;;;;;;;76.90;30.90;;;5.40;73.70;;;;;;4629807;28;20484;-65
2021/11/13 00:15:58;;;;;;;79.10;30.77;;;5.40;73.90;;;;;;4645554;28;20045;-65
2021/11/13 00:18:15;;;;;;;92.22;34.55;;;5.50;74.00;;;;;;4628429;28;20049;-65
2021/11/13 00:20:34;;;;;;;78.38;31.58;;;5.50;74.20;;;;;;4629064;28;20501;-65
2021/11/13 00:22:50;;;;;;;88.65;35.17;;;5.50;74.30;;;;;;4644980;28;20037;-65
2021/11/13 00:25:08;;;;;;;73.63;32.35;;;5.50;74.30;;;;;;4630353;28;20432;-65
2021/11/13 00:27:24;;;;;;;74.22;30.90;;;5.60;74.40;;;;;;4629458;28;20047;-65
2021/11/13 00:29:45;;;;;;;86.55;33.70;;;5.60;74.40;;;;;;4629197;28;20439;-66
2021/11/13 00:32:01;;;;;;;115.68;34.88;;;5.60;74.60;;;;;;4629220;28;20071;-66
2021/11/13 00:34:18;;;;;;;142.43;38.38;;;5.60;74.60;;;;;;4629281;28;20462;-66
2021/11/13 00:36:37;;;;;;;107.43;34.92;;;5.70;74.70;;;;;;4626760;28;20045;-65
2021/11/13 00:38:56;;;;;;;90.70;36.55;;;5.70;74.80;;;;;;4630398;28;20430;-66
2021/11/13 00:41:13;;;;;;;85.07;34.80;;;5.80;74.90;;;;;;4629655;28;20415;-65
2021/11/13 00:43:30;;;;;;;84.40;36.58;;;5.80;75.00;;;;;;4629890;28;20064;-65
2021/11/13 00:45:47;;;;;;;76.35;34.65;;;5.80;75.00;;;;;;4628149;28;20581;-66
2021/11/13 00:48:07;;;;;;;77.97;32.88;;;5.90;75.10;;;;;;4630637;28;20071;-64
2021/11/13 00:50:30;;;;;;;81.65;36.33;;;5.90;75.10;;;;;;4633463;28;20049;-64
2021/11/13 00:52:50;;;;;;;75.03;33.05;;;5.90;75.00;;;;;;4631612;28;20075;-65
2021/11/13 00:55:07;;;;;;;65.70;33.00;;;5.90;75.10;;;;;;4633577;28;20068;-65
2021/11/13 00:57:24;;;;;;;63.63;32.95;;;6.00;75.30;;;;;;4632432;28;20048;-66
2021/11/13 00:59:40;;;;;;;64.97;32.22;;;6.00;75.30;;;;;;4633460;28;20538;-66
2021/11/13 01:01:58;;;;;;;57.03;30.23;;;6.00;75.30;;;;;;4647884;28;20103;-65
2021/11/13 01:04:15;;;;;;;67.18;31.95;;;6.10;75.40;;;;;;4633379;28;20033;-66
2021/11/13 01:06:32;;;;;;;60.22;32.40;;;6.00;75.40;;;;;;4632576;28;20068;-66
2021/11/13 01:08:48;;;;;;;57.22;31.00;;;6.10;75.50;;;;;;4633195;28;20410;-66
2021/11/13 01:11:05;;;;;;;57.47;30.58;;;6.10;75.60;;;;;;4632412;28;20053;-65
2021/11/13 01:13:23;;;;;;;55.95;31.10;;;6.10;75.70;;;;;;4633303;28;20076;-65
2021/11/13 01:15:41;;;;;;;54.63;30.17;;;6.10;75.70;;;;;;4632285;28;20122;-66
2021/11/13 01:17:59;;;;;;;55.92;30.05;;;6.20;75.70;;;;;;4647548;28;20055;-65
2021/11/13 01:20:17;;;;;;;56.88;29.73;;;6.20;75.80;;;;;;4632565;28;20077;-65
2021/11/13 01:22:34;;;;;;;60.00;29.48;;;6.20;75.90;;;;;;4631550;28;20059;-65
2021/11/13 01:24:51;;;;;;;66.70;31.33;;;6.20;75.90;;;;;;4631473;28;20045;-65
2021/11/13 01:27:08;;;;;;;61.22;31.38;;;6.20;76.60;;;;;;4630563;28;20410;-65
2021/11/13 01:29:24;;;;;;;74.43;34.10;;;6.20;76.00;;;;;;4645852;28;20062;-65
2021/11/13 01:31:41;;;;;;;74.28;32.33;;;6.20;76.10;;;;;;4630201;28;20047;-65
2021/11/13 01:34:01;;;;;;;72.85;31.20;;;6.20;76.20;;;;;;4630965;28;20072;-65
2021/11/13 01:36:20;;;;;;;65.82;31.52;;;6.20;76.30;;;;;;4630930;28;20041;-65
2021/11/13 01:38:38;;;;;;;72.00;31.25;;;6.20;76.30;;;;;;4631821;28;20048;-65
2021/11/13 01:40:54;;;;;;;70.68;34.42;;;6.20;77.10;;;;;;4631663;28;20419;-64
2021/11/13 01:43:11;;;;;;;63.83;31.40;;;6.20;76.40;;;;;;4632689;28;20048;-65
2021/11/13 01:45:28;;;;;;;65.88;31.80;;;6.30;76.60;;;;;;4631644;28;20059;-65
2021/11/13 01:47:46;;;;;;;71.65;32.83;;;6.30;76.60;;;;;;4648234;28;20512;-65
2021/11/13 01:50:10;;;;;;;75.63;32.50;;;6.30;76.70;;;;;;4631836;28;20045;-65
2021/11/13 01:52:28;;;;;;;71.43;32.60;;;6.30;76.60;;;;;;4647869;28;20048;-65
2021/11/13 01:54:49;;;;;;;72.70;33.45;;;6.30;76.80;;;;;;4632057;28;20069;-65
2021/11/13 01:57:09;;;;;;;90.22;35.78;;;6.30;76.70;;;;;;4632680;28;20460;-65
2021/11/13 01:59:26;;;;;;;64.03;31.20;;;6.30;76.70;;;;;;4631857;28;20052;-66
2021/11/13 02:01:44;;;;;;;66.43;33.28;;;6.30;76.70;;;;;;4631938;28;20503;-65
2021/11/13 02:04:00;;;;;;;76.88;33.45;;;6.30;76.90;;;;;;4647397;28;20055;-65
2021/11/13 02:06:22;;;;;;;78.15;33.05;;;6.30;76.90;;;;;;4647009;28;20063;-65
2021/11/13 02:08:39;;;;;;;71.97;32.08;;;6.40;77.00;;;;;;4632352;28;20083;-65
2021/11/13 02:10:58;;;;;;;66.93;32.35;;;6.40;77.10;;;;;;4646263;28;20118;-65
2021/11/13 02:13:14;;;;;;;70.47;31.00;;;6.40;77.10;;;;;;4631374;28;20116;-66
2021/11/13 02:15:31;;;;;;;74.93;32.72;;;6.40;77.80;;;;;;4630434;28;20079;-65
2021/11/13 02:17:50;;;;;;;71.65;31.90;;;6.50;77.20;;;;;;4647366;28;20049;-65
2021/11/13 02:20:34;;;;;;;92.57;32.95;;;6.40;77.20;;;;;;4630170;28;20444;-65
2021/11/13 02:22:52;;;;;;;70.97;29.60;;;6.50;77.20;;;;;;4612924;28;20092;-66
2021/11/13 02:25:14;;;;;;;70.50;31.33;;;6.50;77.30;;;;;;4631461;28;20135;-65
2021/11/13 02:27:34;;;;;;;70.95;30.30;;;6.50;77.30;;;;;;4646243;28;20431;-65
2021/11/13 02:29:54;;;;;;;69.45;31.15;;;6.40;77.20;;;;;;4629932;28;20455;-65
2021/11/13 02:32:13;;;;;;;66.93;30.77;;;6.40;77.30;;;;;;4629162;28;20060;-65
2021/11/13 02:34:29;;;;;;;79.72;30.45;;;6.40;77.40;;;;;;4629554;28;20049;-65
2021/11/13 02:36:47;;;;;;;75.25;31.17;;;6.40;77.40;;;;;;4629470;28;20079;-65
2021/11/13 02:39:07;;;;;;;76.55;30.83;;;6.40;77.50;;;;;;4645345;28;20048;-65
2021/11/13 02:41:26;;;;;;;87.97;31.77;;;6.40;77.50;;;;;;4629293;28;20053;-65
2021/11/13 02:43:43;;;;;;;78.38;32.30;;;6.40;77.60;;;;;;4645375;28;20162;-65
2021/11/13 02:46:03;;;;;;;78.22;31.83;;;6.40;77.60;;;;;;4630669;28;20053;-65
2021/11/13 02:48:20;;;;;;;82.43;33.33;;;6.40;77.60;;;;;;4631652;28;20049;-65
2021/11/13 02:50:40;;;;;;;78.15;31.73;;;6.40;77.60;;;;;;4645809;28;20442;-65
2021/11/13 02:52:59;;;;;;;80.85;31.13;;;6.40;77.70;;;;;;4631428;28;20059;-65
2021/11/13 02:55:16;;;;;;;84.15;34.38;;;6.40;77.60;;;;;;4629576;28;20495;-65
2021/11/13 02:57:33;;;;;;;87.15;33.33;;;6.40;77.70;;;;;;4631083;28;20076;-65
2021/11/13 02:59:50;;;;;;;91.25;36.72;;;6.40;77.70;;;;;;4630872;28;20053;-65
2021/11/13 03:02:07;;;;;;;95.70;34.47;;;6.40;77.70;;;;;;4646267;28;20040;-65
2021/11/13 03:04:23;;;;;;;99.65;35.22;;;6.40;77.70;;;;;;4646114;28;20517;-65
2021/11/13 03:06:40;;;;;;;93.80;34.15;;;6.40;77.70;;;;;;4630714;28;20376;-65
2021/11/13 03:08:57;;;;;;;105.13;35.95;;;6.40;77.70;;;;;;4630931;28;20052;-66
2021/11/13 03:11:17;;;;;;;92.50;34.65;;;6.40;77.70;;;;;;4645321;28;20537;-66
2021/11/13 03:13:35;;;;;;;88.35;33.47;;;6.40;77.80;;;;;;4629734;28;20044;-66
2021/11/13 03:15:55;;;;;;;91.10;33.88;;;6.40;77.80;;;;;;4630409;28;20454;-66
2021/11/13 03:18:11;;;;;;;94.90;34.42;;;6.40;78.00;;;;;;4629725;28;20163;-66
2021/11/13 03:20:30;;;;;;;99.03;34.05;;;6.40;78.00;;;;;;4645676;28;20553;-65
2021/11/13 03:22:49;;;;;;;88.82;33.28;;;6.50;78.00;;;;;;4646391;28;20044;-65
2021/11/13 03:25:09;;;;;;;90.57;32.38;;;6.40;78.00;;;;;;4645794;28;20079;-65
2021/11/13 03:27:28;;;;;;;100.30;34.47;;;6.50;78.10;;;;;;4630941;28;20052;-65
2021/11/13 03:29:46;;;;;;;81.00;30.52;;;6.50;78.10;;;;;;4645529;28;20051;-65
2021/11/13 03:32:03;;;;;;;82.13;30.35;;;6.50;78.40;;;;;;4630669;28;20072;-65
2021/11/13 03:34:19;;;;;;;87.47;31.20;;;6.50;78.10;;;;;;4630428;28;20404;-65
2021/11/13 03:36:36;;;;;;;90.20;32.83;;;6.50;78.10;;;;;;4646091;28;20521;-65
2021/11/13 03:38:53;;;;;;;82.57;31.17;;;6.50;78.00;;;;;;4645657;28;20576;-65
2021/11/13 03:41:10;;;;;;;86.10;32.15;;;6.50;78.00;;;;;;4629070;28;20078;-66
2021/11/13 03:43:29;;;;;;;88.57;32.85;;;6.50;77.90;;;;;;4645988;28;20068;-66
2021/11/13 03:45:48;;;;;;;96.55;33.97;;;6.60;78.00;;;;;;4645353;28;20560;-65
2021/11/13 03:48:05;;;;;;;89.65;33.28;;;6.60;78.00;;;;;;4645990;28;20068;-65
2021/11/13 03:50:24;;;;;;;88.38;33.08;;;6.60;78.10;;;;;;4629988;28;20479;-65
2021/11/13 03:52:41;;;;;;;88.32;32.95;;;6.60;78.10;;;;;;4630671;28;20781;-65
2021/11/13 03:54:57;;;;;;;94.07;33.33;;;6.60;78.00;;;;;;4629874;28;20127;-66
2021/11/13 03:57:15;;;;;;;81.70;30.80;;;6.60;78.00;;;;;;4630551;28;20124;-66
2021/11/13 03:59:32;;;;;;;86.13;31.20;;;6.70;78.00;;;;;;4629813;28;20045;-66
2021/11/13 04:01:48;;;;;;;92.50;33.40;;;6.60;78.50;;;;;;4630779;28;20434;-65
2021/11/13 04:04:04;;;;;;;91.00;32.17;;;6.60;77.80;;;;;;4629769;28;20041;-66
2021/11/13 04:06:21;;;;;;;94.57;32.35;;;6.70;77.90;;;;;;4645762;28;20051;-66
2021/11/13 04:08:37;;;;;;;99.93;33.83;;;6.70;77.90;;;;;;4629110;28;20047;-66
2021/11/13 04:10:54;;;;;;;87.50;32.25;;;6.70;77.90;;;;;;4644514;28;20488;-66
2021/11/13 04:13:12;;;;;;;82.40;30.27;;;6.70;77.90;;;;;;4645016;28;20510;-65
2021/11/13 04:15:28;;;;;;;93.97;32.58;;;6.70;77.90;;;;;;4629863;28;20479;-66
2021/11/13 04:17:46;;;;;;;85.53;31.15;;;6.70;77.90;;;;;;4628680;28;20045;-65
2021/11/13 04:20:03;;;;;;;78.22;31.00;;;6.70;77.90;;;;;;4645256;28;20080;-66
2021/11/13 04:22:22;;;;;;;88.57;32.15;;;6.70;77.80;;;;;;4631782;28;20053;-66
2021/11/13 04:24:38;;;;;;;86.72;32.42;;;6.70;77.80;;;;;;4647964;28;20052;-66
2021/11/13 04:26:55;;;;;;;99.32;33.67;;;6.70;77.90;;;;;;4632158;28;20626;-66
2021/11/13 04:29:13;;;;;;;87.72;32.08;;;6.70;77.90;;;;;;4631154;28;20530;-65
2021/11/13 04:31:32;;;;;;;93.95;33.35;;;6.80;78.00;;;;;;4631746;28;20051;-65
2021/11/13 04:33:55;;;;;;;96.32;34.88;;;6.80;77.90;;;;;;4630948;28;20122;-65
2021/11/13 04:36:16;;;;;;;87.53;32.35;;;6.80;78.00;;;;;;4631598;28;20055;-64
2021/11/13 04:38:34;;;;;;;92.57;33.50;;;6.80;77.90;;;;;;4630920;28;20048;-65
2021/11/13 04:40:53;;;;;;;88.80;32.45;;;6.80;78.20;;;;;;4631556;28;20124;-65
2021/11/13 04:43:10;;;;;;;96.63;36.15;;;6.80;77.80;;;;;;4632028;28;20133;-65
2021/11/13 04:45:30;;;;;;;89.85;32.47;;;6.80;78.00;;;;;;4648761;28;20170;-65
2021/11/13 04:47:47;;;;;;;88.00;32.75;;;6.90;78.10;;;;;;4648655;28;20067;-65
2021/11/13 04:50:06;;;;;;;85.60;34.22;;;6.90;78.10;;;;;;4648710;28;20068;-65
2021/11/13 04:52:22;;;;;;;96.78;35.55;;;6.90;78.00;;;;;;4633612;28;20488;-65
2021/11/13 04:54:40;;;;;;;95.47;33.60;;;6.90;78.00;;;;;;4633030;28;20546;-65
2021/11/13 04:56:59;;;;;;;93.07;34.88;;;7.00;78.00;;;;;;4633164;28;20053;-65
2021/11/13 04:59:16;;;;;;;97.80;34.67;;;7.00;78.00;;;;;;4633036;28;20472;-65
2021/11/13 05:01:34;;;;;;;103.97;33.75;;;7.00;78.00;;;;;;4633135;28;20455;-65
2021/11/13 05:03:51;;;;;;;96.32;33.40;;;7.00;78.00;;;;;;4648198;28;20052;-65
2021/11/13 05:06:07;;;;;;;105.13;40.08;;;7.00;78.80;;;;;;4648495;28;20068;-65
2021/11/13 05:08:27;;;;;;;97.60;34.03;;;7.00;78.00;;;;;;4632577;28;20064;-65
2021/11/13 05:10:43;;;;;;;94.70;34.92;;;7.00;78.00;;;;;;4633112;28;20060;-66
2021/11/13 05:13:02;;;;;;;99.70;34.00;;;7.00;78.10;;;;;;4632725;28;20518;-66
2021/11/13 05:15:21;;;;;;;96.82;35.75;;;7.00;78.10;;;;;;4648712;28;20455;-65
2021/11/13 05:17:41;;;;;;;101.13;35.90;;;7.00;78.20;;;;;;4632511;28;20063;-65
2021/11/13 05:20:01;;;;;;;99.18;34.47;;;7.00;78.20;;;;;;4632929;28;20049;-65
2021/11/13 05:22:18;;;;;;;100.93;35.63;;;7.00;79.00;;;;;;4632500;28;20068;-66
2021/11/13 05:24:36;;;;;;;96.35;34.95;;;7.10;78.30;;;;;;4632732;28;20041;-66
2021/11/13 05:26:54;;;;;;;101.35;34.25;;;7.10;78.20;;;;;;4632553;28;20060;-66
2021/11/13 05:29:13;;;;;;;103.53;36.33;;;7.10;78.20;;;;;;4647994;28;20447;-66
2021/11/13 05:31:29;;;;;;;97.57;37.47;;;7.10;78.20;;;;;;4632450;28;20055;-65
2021/11/13 05:33:47;;;;;;;95.93;35.10;;;7.10;78.20;;;;;;4631696;28;20124;-65
2021/11/13 05:36:05;;;;;;;101.57;37.50;;;7.10;78.30;;;;;;4632695;28;20079;-66
2021/11/13 05:38:24;;;;;;;99.40;36.95;;;7.10;78.20;;;;;;4630922;28;20091;-65
2021/11/13 05:40:41;;;;;;;102.97;36.33;;;7.10;78.20;;;;;;4632604;28;20076;-65
2021/11/13 05:42:57;;;;;;;96.75;33.95;;;7.10;78.30;;;;;;4647273;28;20517;-66
2021/11/13 05:45:15;;;;;;;99.97;33.92;;;7.10;78.30;;;;;;4632300;28;20060;-65
2021/11/13 05:47:32;;;;;;;98.32;34.97;;;7.10;78.30;;;;;;4631980;28;20051;-65
2021/11/13 05:49:52;;;;;;;102.40;35.22;;;7.10;78.40;;;;;;4647940;28;20123;-66
2021/11/13 05:52:09;;;;;;;96.20;35.47;;;7.10;78.40;;;;;;4631930;28;20045;-66
2021/11/13 05:54:25;;;;;;;104.50;37.05;;;7.10;79.30;;;;;;4632401;28;20060;-66
2021/11/13 05:56:45;;;;;;;91.55;34.08;;;7.10;78.50;;;;;;4631832;28;20075;-65
2021/11/13 05:59:02;;;;;;;110.32;35.60;;;7.20;78.60;;;;;;4647529;28;20102;-65
2021/11/13 06:01:19;;;;;;;107.00;34.78;;;7.20;78.50;;;;;;4647160;28;20048;-65
2021/11/13 06:03:39;;;;;;;97.93;34.10;;;7.20;78.60;;;;;;4632004;28;20122;-65
2021/11/13 06:05:57;;;;;;;104.75;34.72;;;7.20;78.50;;;;;;4631856;28;20045;-65
2021/11/13 06:08:16;;;;;;;99.53;34.97;;;7.20;78.60;;;;;;4631822;28;20492;-66
2021/11/13 06:10:35;;;;;;;101.25;35.72;;;7.20;78.60;;;;;;4647314;28;20071;-65
2021/11/13 06:12:55;;;;;;;86.95;32.88;;;7.20;78.70;;;;;;4631603;28;20098;-66
2021/11/13 06:15:14;;;;;;;95.15;33.17;;;7.10;78.60;;;;;;4647396;28;20055;-65
2021/11/13 06:17:31;;;;;;;85.03;31.27;;;7.10;78.70;;;;;;4631495;28;20071;-65
2021/11/13 06:19:47;;;;;;;87.03;32.88;;;7.10;78.80;;;;;;4631885;28;20406;-66
2021/11/13 06:22:05;;;;;;;94.60;33.63;;;7.20;78.80;;;;;;4631317;28;20128;-65
2021/11/13 06:24:21;;;;;;;84.45;32.28;;;7.20;78.90;;;;;;4631849;28;20064;-65
2021/11/13 06:26:42;;;;;;;91.75;33.40;;;7.20;78.80;;;;;;4631294;28;20410;-66
2021/11/13 06:29:00;;;;;;;95.25;33.13;;;7.20;78.80;;;;;;4647130;28;20041;-65
2021/11/13 06:31:16;;;;;;;92.32;33.28;;;7.20;78.80;;;;;;4646527;28;20063;-65
2021/11/13 06:33:33;;;;;;;90.03;31.58;;;7.20;79.40;;;;;;4646995;28;20051;-66
2021/11/13 06:35:49;;;;;;;87.60;31.55;;;7.20;78.80;;;;;;4631127;28;20068;-66
2021/11/13 06:38:07;;;;;;;84.85;31.33;;;7.30;78.80;;;;;;4646920;28;20119;-65
2021/11/13 06:40:24;;;;;;;78.25;29.73;;;7.20;78.80;;;;;;4631183;28;20052;-65
2021/11/13 06:42:47;;;;;;;86.85;31.05;;;7.30;78.90;;;;;;4631236;28;20051;-65
2021/11/13 06:45:05;;;;;;;73.65;29.48;;;7.30;78.90;;;;;;4630628;28;20073;-66
2021/11/13 06:47:21;;;;;;;81.03;31.77;;;7.30;79.50;;;;;;4630735;28;20049;-65
2021/11/13 06:49:38;;;;;;;78.72;29.77;;;7.40;78.90;;;;;;4631494;28;20483;-65
2021/11/13 06:51:57;;;;;;;84.50;31.73;;;7.30;78.80;;;;;;4630790;28;20072;-65
2021/11/13 06:54:14;;;;;;;79.28;31.05;;;7.40;78.90;;;;;;4646625;28;20536;-65
2021/11/13 06:56:31;;;;;;;79.35;29.05;;;7.30;78.90;;;;;;4631106;28;20091;-66
2021/11/13 06:58:48;;;;;;;77.90;30.83;;;7.40;78.90;;;;;;4631231;28;20507;-65
2021/11/13 07:01:05;;;;;;;71.68;28.85;;;7.40;78.90;;;;;;4630803;28;20056;-65
2021/11/13 07:03:24;;;;;;;79.05;29.20;;;7.40;78.80;;;;;;4631144;28;20063;-66
2021/11/13 07:05:40;;;;;;;72.38;28.80;;;7.40;78.80;;;;;;4645880;28;20460;-65
2021/11/13 07:07:58;;;;;;;73.63;28.98;;;7.40;78.80;;;;;;4646462;28;20502;-66
2021/11/13 07:10:17;;;;;;;78.72;30.00;;;7.40;78.80;;;;;;4630585;28;20043;-66
2021/11/13 07:12:34;;;;;;;70.28;27.48;;;7.40;78.80;;;;;;4630982;28;20503;-66
2021/11/13 07:14:50;;;;;;;79.10;29.42;;;7.40;78.70;;;;;;4645841;28;20040;-66
2021/11/13 07:17:06;;;;;;;72.18;28.90;;;7.40;78.80;;;;;;4630618;28;20069;-66
2021/11/13 07:19:23;;;;;;;74.25;31.00;;;7.40;78.70;;;;;;4629707;28;20056;-65
2021/11/13 07:21:42;;;;;;;79.97;30.30;;;7.40;78.70;;;;;;4630086;28;20402;-64
2021/11/13 07:23:58;;;;;;;71.90;27.08;;;7.40;78.70;;;;;;4630281;28;20048;-65
2021/11/13 07:26:16;;;;;;;72.07;29.55;;;7.50;78.80;;;;;;4628271;28;20075;-65
2021/11/13 07:28:38;;;;;;;73.75;27.52;;;7.50;78.60;;;;;;4628707;28;20055;-64
2021/11/13 07:30:57;;;;;;;70.07;27.75;;;7.50;78.70;;;;;;4628125;28;20471;-66
2021/11/13 07:33:16;;;;;;;62.90;26.45;;;7.50;78.70;;;;;;4644099;28;20553;-66
2021/11/13 07:35:32;;;;;;;68.47;27.83;;;7.50;78.70;;;;;;4628561;28;20041;-65
2021/11/13 07:37:49;;;;;;;62.22;25.35;;;7.60;78.70;;;;;;4643906;28;20052;-66
2021/11/13 07:40:09;;;;;;;66.38;25.70;;;7.60;78.70;;;;;;4628909;28;20068;-65
2021/11/13 07:42:27;;;;;;;63.40;26.15;;;7.60;78.60;;;;;;4646255;28;20391;-66
2021/11/13 07:44:43;;;;;;;58.47;23.58;;;7.60;78.60;;;;;;4630637;28;20052;-66
2021/11/13 07:47:04;;;;;;;63.88;25.42;;;7.60;78.50;;;;;;4645901;28;20067;-66
2021/11/13 07:49:20;;;;;;;67.28;25.17;;;7.60;78.60;;;;;;4645451;28;20530;-66
2021/11/13 07:51:36;;;;;;;56.45;24.15;;;7.70;78.60;;;;;;4645840;28;20040;-66
2021/11/13 07:53:53;;;;;;;54.75;22.90;;;7.70;78.20;;;;;;4630158;28;20064;-66
2021/11/13 07:56:09;;;;;;;57.20;24.05;;;7.60;78.50;;;;;;4645596;28;20388;-66
2021/11/13 07:58:27;;;;;;;57.55;24.58;;;7.70;79.30;;;;;;4629909;28;20068;-65
2021/11/13 08:00:45;;;;;;;53.55;22.95;;;7.70;78.60;;;;;;4629036;28;20060;-65
2021/11/13 08:03:01;;;;;;;58.00;23.50;;;7.70;78.50;;;;;;4630450;28;20059;-65
2021/11/13 08:05:18;;;;;;;54.65;21.25;;;7.70;78.60;;;;;;4629811;28;20469;-66
2021/11/13 08:07:37;;;;;;;57.65;24.20;;;7.70;78.70;;;;;;4645826;28;20463;-66
2021/11/13 08:09:53;;;;;;;56.42;22.83;;;7.70;78.80;;;;;;4630044;28;20041;-66
2021/11/13 08:12:10;;;;;;;51.47;21.17;;;7.80;78.80;;;;;;4645726;28;20050;-66
2021/11/13 08:14:28;;;;;;;54.35;22.15;;;7.80;78.60;;;;;;4645216;28;20063;-66
2021/11/13 08:16:44;;;;;;;51.13;22.17;;;7.80;78.60;;;;;;4645632;28;20476;-66
2021/11/13 08:19:00;;;;;;;51.60;21.67;;;7.80;78.60;;;;;;4629846;28;20052;-65
2021/11/13 08:21:17;;;;;;;51.83;21.77;;;7.80;78.50;;;;;;4630102;28;20507;-66
2021/11/13 08:23:34;;;;;;;51.00;21.35;;;7.80;78.50;;;;;;4645068;28;20628;-66
2021/11/13 08:25:52;;;;;;;50.30;20.55;;;7.80;78.60;;;;;;4630156;28;20049;-66
2021/11/13 08:28:12;;;;;;;50.25;20.52;;;7.80;78.60;;;;;;4645122;28;20056;-66
2021/11/13 08:30:34;;;;;;;43.85;19.25;;;7.80;78.50;;;;;;4630173;28;20060;-66
2021/11/13 08:32:50;;;;;;;46.85;19.92;;;7.80;78.50;;;;;;4629777;28;20076;-66
2021/11/13 08:35:08;;;;;;;49.92;21.00;;;7.80;78.50;;;;;;4629882;28;20079;-66
2021/11/13 08:37:24;;;;;;;44.78;19.05;;;7.90;78.60;;;;;;4645278;28;20041;-66
2021/11/13 08:39:41;;;;;;;49.97;19.35;;;7.90;78.60;;;;;;4629855;28;20045;-66
2021/11/13 08:41:57;;;;;;;45.35;19.50;;;7.90;78.50;;;;;;4629849;28;20080;-65
2021/11/13 08:44:14;;;;;;;45.83;18.92;;;7.90;78.50;;;;;;4645044;28;20044;-66
2021/11/13 08:46:32;;;;;;;46.90;19.02;;;7.90;78.50;;;;;;4629747;28;20088;-66
2021/11/13 08:48:49;;;;;;;47.60;18.48;;;7.90;78.50;;;;;;4628368;28;20519;-65
2021/11/13 08:51:05;;;;;;;48.50;19.70;;;8.00;78.50;;;;;;4645386;28;20045;-65
2021/11/13 08:53:24;;;;;;;46.00;19.88;;;8.00;78.40;;;;;;4644937;28;20467;-65
2021/11/13 08:55:44;;;;;;;47.65;20.10;;;8.00;78.30;;;;;;4645559;28;20068;-65
2021/11/13 08:58:01;;;;;;;43.63;18.80;;;8.00;78.30;;;;;;4629525;28;20124;-65
2021/11/13 09:00:22;;;;;;;41.05;17.00;;;8.10;78.30;;;;;;4645275;28;20040;-65
2021/11/13 09:02:41;;;;;;;46.60;19.25;;;8.00;78.30;;;;;;4629488;28;20069;-64
2021/11/13 09:05:00;;;;;;;49.40;20.95;;;8.00;78.20;;;;;;4629786;28;20041;-65
2021/11/13 09:07:18;;;;;;;43.35;19.80;;;8.10;78.30;;;;;;4644862;28;20845;-65
2021/11/13 09:09:37;;;;;;;38.25;17.58;;;8.10;78.30;;;;;;4630126;28;20044;-65
2021/11/13 09:11:57;;;;;;;41.90;18.63;;;8.10;78.20;;;;;;4648209;28;20062;-65
2021/11/13 09:14:16;;;;;;;46.17;19.42;;;8.10;78.20;;;;;;4632720;28;20045;-65
2021/11/13 09:16:33;;;;;;;40.88;17.63;;;8.10;78.10;;;;;;4648233;28;20072;-65
2021/11/13 09:18:51;;;;;;;40.33;19.00;;;8.20;78.00;;;;;;4632607;28;20048;-65
2021/11/13 09:21:08;;;;;;;40.33;18.48;;;8.20;78.00;;;;;;4648382;28;20048;-65
2021/11/13 09:23:24;;;;;;;40.03;18.50;;;8.20;77.80;;;;;;4632376;28;20060;-66
2021/11/13 09:25:44;;;;;;;49.22;19.15;;;8.20;77.80;;;;;;4632750;28;20048;-65
2021/11/13 09:28:01;;;;;;;39.38;18.63;;;8.20;77.80;;;;;;4647745;28;20044;-65
2021/11/13 09:30:24;;;;;;;46.85;20.33;;;8.20;77.80;;;;;;4648048;28;20071;-65
2021/11/13 09:32:43;;;;;;;49.10;21.00;;;8.30;77.90;;;;;;4632203;28;20128;-64
2021/11/13 09:35:00;;;;;;;45.22;19.70;;;8.20;77.70;;;;;;4632493;28;20051;-65
2021/11/13 09:37:17;;;;;;;46.85;18.98;;;8.20;77.80;;;;;;4632300;28;20066;-65
2021/11/13 09:39:33;;;;;;;41.38;18.73;;;8.20;77.80;;;;;;4632536;28;20803;-64
2021/11/13 09:41:50;;;;;;;45.63;21.05;;;8.30;77.80;;;;;;4632196;28;20041;-64
2021/11/13 09:44:11;;;;;;;44.42;19.42;;;8.30;78.60;;;;;;4647627;28;20052;-65
2021/11/13 09:46:31;;;;;;;47.70;20.60;;;8.30;77.60;;;;;;4632020;28;20044;-64
2021/11/13 09:48:52;;;;;;;48.72;20.95;;;8.30;77.80;;;;;;4632057;28;20048;-64
2021/11/13 09:51:12;;;;;;;48.17;19.90;;;8.30;77.60;;;;;;4647631;28;20051;-65
2021/11/13 09:53:30;;;;;;;53.40;20.23;;;8.30;77.70;;;;;;4632021;28;20384;-65
2021/11/13 09:55:46;;;;;;;46.85;20.17;;;8.30;77.70;;;;;;4632592;28;20049;-65
2021/11/13 09:58:04;;;;;;;46.90;19.40;;;8.30;77.60;;;;;;4631724;28;20094;-64
2021/11/13 10:00:23;;;;;;;45.90;18.98;;;8.30;77.70;;;;;;4632452;28;20055;-64
2021/11/13 10:02:40;;;;;;;50.60;20.17;;;8.30;78.40;;;;;;4631714;28;20051;-65
2021/11/13 10:04:56;;;;;;;46.80;20.58;;;8.30;77.60;;;;;;4647322;28;20102;-65
2021/11/13 10:07:14;;;;;;;51.92;19.38;;;8.30;77.60;;;;;;4631807;28;20099;-66
2021/11/13 10:09:33;;;;;;;47.17;20.33;;;8.30;77.60;;;;;;4632073;28;20094;-66
2021/11/13 10:11:53;;;;;;;48.05;20.15;;;8.30;77.60;;;;;;4647074;28;20108;-66
2021/11/13 10:14:11;;;;;;;47.92;22.23;;;8.30;77.50;;;;;;4647349;28;20153;-65
2021/11/13 10:16:33;;;;;;;52.83;20.67;;;8.30;77.40;;;;;;4631473;28;20480;-66
2021/11/13 10:18:53;;;;;;;49.90;20.15;;;8.30;77.40;;;;;;4647249;28;20044;-65
2021/11/13 10:21:12;;;;;;;51.50;21.85;;;8.30;77.60;;;;;;4631941;28;20044;-65
2021/11/13 10:23:41;;;;;;;53.20;20.55;;;8.40;77.50;;;;;;4646932;28;20048;-65
2021/11/13 10:26:00;;;;;;;48.15;20.45;;;8.30;78.10;;;;;;4631901;28;20068;-65
2021/11/13 10:28:17;;;;;;;51.00;23.42;;;8.40;77.50;;;;;;4631612;28;20052;-65
2021/11/13 10:30:33;;;;;;;47.90;21.40;;;8.40;77.60;;;;;;4631727;28;20049;-64
2021/11/13 10:32:56;;;;;;;55.30;22.50;;;8.40;77.60;;;;;;4631211;28;20060;-64
2021/11/13 10:35:13;;;;;;;59.08;23.23;;;8.40;77.50;;;;;;4631404;28;20463;-65
2021/11/13 10:37:31;;;;;;;50.90;22.08;;;8.40;77.30;;;;;;4646516;28;20048;-63
2021/11/13 10:39:57;;;;;;;56.42;22.58;;;8.40;77.30;;;;;;4632272;28;20041;-65
2021/11/13 10:42:16;;;;;;;50.00;20.33;;;8.50;77.30;;;;;;4646818;28;20049;-64
2021/11/13 10:44:34;;;;;;;48.88;21.10;;;8.50;77.30;;;;;;4631385;28;20041;-66
2021/11/13 10:46:51;;;;;;;47.90;20.70;;;8.50;77.20;;;;;;4630875;28;20550;-66
2021/11/13 10:49:08;;;;;;;45.85;19.35;;;8.60;77.30;;;;;;4631242;28;20041;-65
2021/11/13 10:51:29;;;;;;;50.60;20.58;;;8.60;77.10;;;;;;4631087;28;20091;-65
2021/11/13 10:53:47;;;;;;;50.40;20.40;;;8.60;76.80;;;;;;4629690;28;20079;-66
2021/11/13 10:56:10;;;;;;;59.20;25.42;;;8.60;76.80;;;;;;4631173;28;20064;-66
2021/11/13 10:58:29;;;;;;;60.08;24.92;;;8.60;77.50;;;;;;4630709;28;20464;-65
2021/11/13 11:00:46;;;;;;;65.47;25.35;;;8.60;76.70;;;;;;4631190;28;20044;-66
2021/11/13 11:03:07;;;;;;;67.20;27.27;;;8.50;76.80;;;;;;4645793;28;20123;-65
2021/11/13 11:05:23;;;;;;;63.55;25.10;;;8.50;76.90;;;;;;4630999;28;20103;-65
2021/11/13 11:07:40;;;;;;;60.85;24.23;;;8.50;77.10;;;;;;4629304;28;20072;-66
2021/11/13 11:10:00;;;;;;;54.47;24.95;;;8.50;77.00;;;;;;4630973;28;20048;-66
2021/11/13 11:12:21;;;;;;;55.28;24.17;;;8.50;77.10;;;;;;4630531;28;20055;-66
2021/11/13 11:14:41;;;;;;;56.00;25.13;;;8.50;77.10;;;;;;4630953;28;20041;-67
2021/11/13 11:17:01;;;;;;;62.25;25.65;;;8.50;77.10;;;;;;4630717;28;20194;-67
2021/11/13 11:19:21;;;;;;;60.15;24.27;;;8.60;77.00;;;;;;4630899;28;20060;-66
2021/11/13 11:21:47;;;;;;;59.20;25.75;;;8.60;76.80;;;;;;4630530;28;20084;-66
2021/11/13 11:24:12;;;;;;;54.10;22.67;;;8.70;76.90;;;;;;4645896;28;20494;-66
2021/11/13 11:26:32;;;;;;;54.30;22.30;;;8.70;76.70;;;;;;4630758;28;20048;-67
2021/11/13 11:29:01;;;;;;;50.72;22.17;;;8.70;76.60;;;;;;4645649;28;20135;-66
2021/11/13 11:31:40;;;;;;;54.42;22.00;;;8.70;76.50;;;;;;4645581;28;20056;-66
2021/11/13 11:33:59;;;;;;;63.05;25.02;;;8.60;76.30;;;;;;4630327;28;20077;-66
2021/11/13 11:36:31;;;;;;;63.90;25.90;;;8.60;77.30;;;;;;4630642;28;20498;-65
2021/11/13 11:38:47;;;;;;;60.72;23.92;;;8.60;76.60;;;;;;4645621;28;20064;-66
2021/11/13 11:41:04;;;;;;;59.03;24.00;;;8.50;77.30;;;;;;4630620;28;20513;-66
2021/11/13 11:43:23;;;;;;;70.00;26.30;;;8.60;76.70;;;;;;4630305;28;20131;-65
2021/11/13 11:45:44;;;;;;;62.13;26.23;;;8.50;76.70;;;;;;4645541;28;20056;-66
2021/11/13 11:48:01;;;;;;;55.53;23.38;;;8.50;76.80;;;;;;4630261;28;20072;-65
2021/11/13 11:50:24;;;;;;;58.75;24.88;;;8.50;76.70;;;;;;4630141;28;20419;-66